Time;durP1;ratioP1;P1;durP2;ratioP2;P2;SDS_P1;SDS_P2;PMS_P1;PMS_P2;Temp;Humidity;BMP_temperature;BMP_pressure;BME280_temperature;BME280_humidity;BME280_pressure;Samples;Min_cycle;Max_cycle;Signal;HPM_P1;HPM_P2
2022/01/05 00:01:26;;;;;;;0.50;0.50;;;8.50;99.90;;;;;;5038566;28;20520;-76
2022/01/05 00:03:52;;;;;;;0.40;0.40;;;8.50;99.90;;;;;;5072067;28;20201;-81
2022/01/05 00:06:19;;;;;;;0.80;0.50;;;8.60;99.90;;;;;;5038202;28;20669;-81
2022/01/05 00:08:45;;;;;;;0.83;0.60;;;8.50;99.90;;;;;;5055745;28;20200;-76
2022/01/05 00:11:12;;;;;;;0.50;0.40;;;8.40;99.90;;;;;;5055633;28;20710;-81
2022/01/05 00:13:38;;;;;;;0.80;0.43;;;8.60;99.90;;;;;;5046055;28;20208;-75
2022/01/05 00:16:04;;;;;;;0.40;0.40;;;8.50;99.90;;;;;;5055674;28;20223;-81
2022/01/05 00:18:31;;;;;;;0.63;0.30;;;8.50;99.90;;;;;;5055376;28;20173;-76
2022/01/05 00:20:59;;;;;;;0.77;0.33;;;8.50;99.90;;;;;;5038492;28;20209;-81
2022/01/05 00:23:25;;;;;;;1.17;0.60;;;8.50;99.90;;;;;;5055086;28;20701;-75
2022/01/05 00:25:51;;;;;;;0.93;0.37;;;8.60;99.90;;;;;;5038162;28;20208;-83
2022/01/05 00:28:19;;;;;;;0.30;0.30;;;8.40;99.90;;;;;;5054755;28;20683;-75
2022/01/05 00:30:49;;;;;;;0.30;0.30;;;8.50;99.90;;;;;;5054979;28;20220;-77
2022/01/05 00:33:15;;;;;;;0.33;0.33;;;8.50;99.90;;;;;;5071291;28;20212;-77
2022/01/05 00:35:42;;;;;;;0.43;0.40;;;8.30;99.90;;;;;;5054653;28;20215;-82
2022/01/05 00:38:08;;;;;;;0.30;0.30;;;8.30;99.90;;;;;;5070902;28;20204;-81
2022/01/05 00:40:34;;;;;;;0.67;0.53;;;8.30;99.90;;;;;;5055059;28;20663;-84
2022/01/05 00:43:00;;;;;;;0.30;0.30;;;8.20;99.90;;;;;;5034888;28;20339;-78
2022/01/05 00:45:25;;;;;;;0.40;0.40;;;8.00;99.90;;;;;;5039239;28;20263;-76
2022/01/05 00:47:51;;;;;;;0.30;0.30;;;8.10;99.90;;;;;;5035430;28;20256;-82
2022/01/05 00:50:17;;;;;;;0.40;0.23;;;8.00;99.90;;;;;;5068377;28;20538;-77
2022/01/05 00:52:43;;;;;;;0.40;0.40;;;8.10;99.90;;;;;;5035030;28;20212;-77
2022/01/05 00:55:09;;;;;;;0.30;0.30;;;8.10;99.90;;;;;;5051804;28;20205;-83
2022/01/05 00:57:35;;;;;;;0.30;0.30;;;8.20;99.90;;;;;;5052663;28;20224;-82
2022/01/05 01:00:02;;;;;;;0.30;0.30;;;8.30;99.90;;;;;;5068593;28;20208;-83
2022/01/05 01:02:28;;;;;;;0.20;0.20;;;8.20;99.90;;;;;;5068359;28;20216;-82
2022/01/05 01:04:54;;;;;;;0.20;0.20;;;8.30;99.90;;;;;;5018471;28;20239;-84
2022/01/05 01:07:20;;;;;;;0.30;0.30;;;8.50;99.90;;;;;;5031404;28;20227;-76
2022/01/05 01:09:46;;;;;;;0.30;0.30;;;8.50;99.90;;;;;;5021897;28;20216;-77
2022/01/05 01:12:11;;;;;;;0.30;0.30;;;8.40;99.90;;;;;;5021365;28;20603;-78
2022/01/05 01:14:38;;;;;;;0.30;0.30;;;8.50;99.90;;;;;;5071201;28;20212;-83
2022/01/05 01:17:04;;;;;;;0.53;0.40;;;8.10;99.90;;;;;;5076366;28;20516;-83
2022/01/05 01:19:30;;;;;;;0.43;0.40;;;8.20;99.90;;;;;;5071425;28;20196;-76
2022/01/05 01:21:57;;;;;;;0.40;0.30;;;8.40;99.90;;;;;;5054271;28;20238;-77
2022/01/05 01:24:24;;;;;;;0.50;0.27;;;8.30;99.90;;;;;;5023845;28;20209;-85
2022/01/05 01:26:49;;;;;;;0.30;0.30;;;8.30;99.90;;;;;;5068293;28;20200;-76
2022/01/05 01:29:15;;;;;;;0.20;0.20;;;8.30;99.90;;;;;;5021756;28;20204;-84
2022/01/05 01:31:41;;;;;;;0.40;0.33;;;8.40;99.90;;;;;;5054567;28;20588;-83
2022/01/05 01:34:07;;;;;;;0.30;0.30;;;8.20;99.90;;;;;;5072708;28;20283;-78
2022/01/05 01:36:33;;;;;;;0.40;0.27;;;8.30;99.90;;;;;;5054423;28;20196;-79
2022/01/05 01:38:59;;;;;;;0.20;0.20;;;8.30;99.90;;;;;;5071842;28;20224;-78
2022/01/05 01:41:25;;;;;;;0.30;0.30;;;8.00;99.90;;;;;;5071072;28;20663;-83
2022/01/05 01:43:51;;;;;;;0.20;0.20;;;7.80;99.90;;;;;;5071149;28;20655;-83
2022/01/05 01:46:17;;;;;;;0.20;0.20;;;8.20;99.90;;;;;;5054250;28;20187;-77
2022/01/05 01:48:43;;;;;;;0.43;0.30;;;8.20;99.90;;;;;;5055731;28;20207;-76
2022/01/05 01:51:09;;;;;;;0.20;0.20;;;8.30;99.90;;;;;;5074641;28;20224;-76
2022/01/05 01:53:35;;;;;;;0.27;0.27;;;8.20;99.90;;;;;;5058310;28;20192;-82
2022/01/05 01:56:05;;;;;;;0.30;0.30;;;8.10;99.90;;;;;;5074961;28;20285;-83
2022/01/05 01:58:34;;;;;;;0.20;0.20;;;8.10;99.90;;;;;;5075142;28;20228;-79
2022/01/05 02:01:00;;;;;;;0.20;0.20;;;7.80;99.90;;;;;;5074662;28;20576;-83
2022/01/05 02:03:26;;;;;;;0.30;0.30;;;8.00;99.90;;;;;;5057996;28;20204;-83
2022/01/05 02:05:52;;;;;;;0.27;0.27;;;8.10;99.90;;;;;;5074484;28;20192;-82
2022/01/05 02:08:18;;;;;;;0.70;0.40;;;8.30;99.90;;;;;;5075800;28;20204;-76
2022/01/05 02:10:44;;;;;;;0.20;0.20;;;8.20;99.90;;;;;;5073832;28;20253;-81
2022/01/05 02:13:10;;;;;;;0.23;0.23;;;8.30;99.90;;;;;;5075346;28;20291;-80
2022/01/05 02:15:36;;;;;;;0.20;0.20;;;8.20;99.90;;;;;;5056958;28;20192;-76
2022/01/05 02:20:29;;;;;;;0.20;0.20;;;8.40;99.90;;;;;;5057356;28;20200;-82
2022/01/05 02:22:55;;;;;;;0.40;0.40;;;8.30;99.90;;;;;;5041397;28;20200;-77
2022/01/05 02:25:22;;;;;;;0.23;0.23;;;8.30;99.90;;;;;;5075321;28;20188;-76
2022/01/05 02:27:50;;;;;;;0.20;0.20;;;8.40;99.90;;;;;;5073789;28;20196;-80
2022/01/05 02:30:22;;;;;;;0.40;0.30;;;8.50;99.90;;;;;;5073534;28;20188;-83
2022/01/05 02:32:48;;;;;;;0.30;0.30;;;8.30;99.90;;;;;;5057755;28;20208;-76
2022/01/05 02:35:14;;;;;;;0.30;0.30;;;8.30;99.90;;;;;;5057716;28;20226;-76
2022/01/05 02:37:45;;;;;;;0.80;0.30;;;8.50;99.90;;;;;;5041031;28;20204;-77
2022/01/05 02:40:14;;;;;;;0.30;0.30;;;8.30;99.90;;;;;;5074426;28;20246;-76
2022/01/05 02:42:41;;;;;;;0.50;0.40;;;8.10;99.90;;;;;;5074609;28;20665;-84
2022/01/05 02:45:08;;;;;;;0.40;0.40;;;8.30;99.90;;;;;;5073355;28;20670;-76
2022/01/05 02:47:34;;;;;;;0.40;0.40;;;8.60;99.90;;;;;;5040806;28;20628;-84
2022/01/05 02:50:01;;;;;;;0.40;0.40;;;8.70;99.90;;;;;;5056966;28;20200;-76
2022/01/05 02:52:26;;;;;;;0.30;0.30;;;8.80;99.90;;;;;;5057070;28;20208;-75
2022/01/05 02:54:52;;;;;;;0.40;0.40;;;8.30;99.90;;;;;;5041864;28;20536;-76
2022/01/05 02:57:21;;;;;;;0.20;0.20;;;8.20;99.90;;;;;;5059060;28;20615;-84
2022/01/05 02:59:47;;;;;;;0.40;0.37;;;8.20;99.90;;;;;;5073371;28;20184;-77
2022/01/05 03:02:12;;;;;;;0.30;0.30;;;8.00;99.90;;;;;;5056852;28;20184;-82
2022/01/05 03:04:38;;;;;;;1.13;0.50;;;8.00;99.90;;;;;;5056558;28;20448;-77
2022/01/05 03:07:04;;;;;;;0.70;0.40;;;8.30;99.90;;;;;;5055674;28;20191;-76
2022/01/05 03:09:31;;;;;;;0.40;0.40;;;8.30;99.90;;;;;;5040011;28;20756;-84
2022/01/05 03:11:57;;;;;;;0.47;0.40;;;8.30;99.90;;;;;;5074311;28;20671;-83
2022/01/05 03:14:23;;;;;;;1.53;0.30;;;8.30;99.90;;;;;;5072975;28;20198;-83
2022/01/05 03:16:49;;;;;;;0.27;0.23;;;8.40;99.90;;;;;;5072565;28;20208;-76
2022/01/05 03:19:14;;;;;;;0.27;0.27;;;7.90;99.90;;;;;;5040066;28;20193;-76
2022/01/05 03:21:40;;;;;;;0.40;0.40;;;8.00;99.90;;;;;;5073156;28;20218;-84
2022/01/05 03:24:06;;;;;;;0.30;0.30;;;8.10;99.90;;;;;;5072750;28;20596;-82
2022/01/05 03:26:32;;;;;;;0.70;0.30;;;8.10;99.90;;;;;;5055994;28;20275;-83
2022/01/05 03:28:58;;;;;;;0.30;0.30;;;8.00;99.90;;;;;;5072165;28;20683;-83
2022/01/05 03:31:23;;;;;;;0.40;0.40;;;7.90;99.90;;;;;;5023303;28;20240;-82
2022/01/05 03:33:49;;;;;;;0.37;0.30;;;8.00;99.90;;;;;;5074884;28;20569;-81
2022/01/05 03:36:16;;;;;;;0.37;0.30;;;7.80;99.90;;;;;;5056292;28;20285;-76
2022/01/05 03:38:42;;;;;;;0.87;0.30;;;7.90;99.90;;;;;;5072177;28;20679;-78
2022/01/05 03:41:09;;;;;;;0.53;0.40;;;7.90;99.90;;;;;;5073519;28;20222;-87
2022/01/05 03:43:35;;;;;;;0.20;0.20;;;8.00;99.90;;;;;;5041340;28;20207;-79
2022/01/05 03:46:01;;;;;;;0.30;0.30;;;8.00;99.90;;;;;;5055847;28;20188;-76
2022/01/05 03:48:27;;;;;;;0.40;0.30;;;8.20;99.90;;;;;;5038878;28;20245;-83
2022/01/05 03:50:53;;;;;;;2.00;0.40;;;8.10;99.90;;;;;;5055800;28;20201;-76
2022/01/05 03:53:18;;;;;;;0.37;0.37;;;8.30;99.90;;;;;;5073633;28;20281;-76
2022/01/05 03:55:46;;;;;;;0.20;0.20;;;8.30;99.90;;;;;;5055958;28;20203;-83
2022/01/05 03:58:15;;;;;;;0.30;0.30;;;7.80;99.90;;;;;;5072785;28;20329;-76
2022/01/05 04:00:46;;;;;;;0.20;0.20;;;7.80;99.90;;;;;;5075162;28;20234;-84
2022/01/05 04:03:13;;;;;;;1.63;0.37;;;7.90;99.90;;;;;;5054915;28;20196;-83
2022/01/05 04:05:38;;;;;;;0.30;0.30;;;8.00;99.90;;;;;;5072055;28;20226;-77
2022/01/05 04:08:05;;;;;;;0.30;0.30;;;7.90;99.90;;;;;;5039596;28;20212;-77
2022/01/05 04:10:31;;;;;;;1.33;0.40;;;7.70;99.90;;;;;;5055590;28;20641;-76
2022/01/05 04:12:57;;;;;;;0.33;0.23;;;7.50;99.90;;;;;;5038333;28;20254;-83
2022/01/05 04:15:23;;;;;;;0.23;0.23;;;7.60;99.90;;;;;;5039313;28;20204;-84
2022/01/05 04:17:49;;;;;;;0.30;0.30;;;7.80;99.90;;;;;;5072072;28;20565;-76
2022/01/05 04:20:17;;;;;;;0.23;0.23;;;7.90;99.90;;;;;;5072476;28;20280;-83
2022/01/05 04:22:43;;;;;;;0.30;0.30;;;7.70;99.90;;;;;;5055999;28;20192;-83
2022/01/05 04:25:09;;;;;;;0.20;0.20;;;7.80;99.90;;;;;;5055183;28;20291;-82
2022/01/05 04:27:35;;;;;;;0.20;0.20;;;7.70;99.90;;;;;;5055752;28;20227;-77
2022/01/05 04:30:02;;;;;;;0.30;0.30;;;7.70;99.90;;;;;;5055903;28;20208;-76
2022/01/05 04:32:28;;;;;;;0.30;0.30;;;7.80;99.90;;;;;;5059856;28;20212;-83
2022/01/05 04:34:54;;;;;;;0.20;0.20;;;7.80;99.90;;;;;;5074572;28;20207;-82
2022/01/05 04:37:20;;;;;;;0.20;0.20;;;8.00;99.90;;;;;;5054976;28;20237;-76
2022/01/05 04:39:46;;;;;;;0.30;0.30;;;7.90;99.90;;;;;;5071053;28;20211;-76
2022/01/05 04:42:11;;;;;;;0.33;0.30;;;7.80;99.90;;;;;;5055210;28;20196;-76
2022/01/05 04:44:37;;;;;;;0.30;0.30;;;7.90;99.90;;;;;;5038358;28;20663;-83
2022/01/05 04:47:04;;;;;;;0.20;0.20;;;7.80;99.90;;;;;;5071666;28;20612;-80
2022/01/05 04:49:30;;;;;;;0.20;0.20;;;7.90;99.90;;;;;;5054971;28;20204;-82
2022/01/05 04:51:57;;;;;;;0.33;0.20;;;8.00;99.90;;;;;;5072069;28;20291;-83
2022/01/05 04:54:24;;;;;;;0.20;0.20;;;7.90;99.90;;;;;;5071350;28;20193;-75
2022/01/05 04:56:49;;;;;;;0.30;0.30;;;8.10;99.90;;;;;;5054660;28;20310;-76
2022/01/05 04:59:15;;;;;;;0.30;0.30;;;8.00;99.90;;;;;;5038113;28;20707;-84
2022/01/05 05:01:41;;;;;;;0.20;0.20;;;7.80;99.90;;;;;;5070906;28;20196;-82
2022/01/05 05:04:07;;;;;;;0.43;0.30;;;7.80;99.90;;;;;;5071567;28;20250;-81
2022/01/05 05:06:33;;;;;;;0.33;0.27;;;8.00;99.90;;;;;;5057128;28;20196;-81
2022/01/05 05:08:59;;;;;;;0.30;0.30;;;7.90;99.90;;;;;;5054753;28;20573;-82
2022/01/05 05:11:25;;;;;;;1.37;0.30;;;7.90;99.90;;;;;;5037085;28;20261;-82
2022/01/05 05:13:51;;;;;;;0.43;0.30;;;8.00;99.90;;;;;;5072113;28;20212;-76
2022/01/05 05:16:16;;;;;;;0.30;0.30;;;8.00;99.90;;;;;;5053885;28;20313;-84
2022/01/05 05:18:42;;;;;;;0.23;0.23;;;7.70;99.90;;;;;;5072255;28;20570;-83
2022/01/05 05:21:08;;;;;;;0.20;0.20;;;8.10;99.90;;;;;;5054555;28;20535;-74
2022/01/05 05:23:34;;;;;;;0.30;0.30;;;8.20;99.90;;;;;;5071397;28;20542;-76
2022/01/05 05:26:00;;;;;;;0.40;0.40;;;8.20;99.90;;;;;;5054135;28;20212;-76
2022/01/05 05:28:26;;;;;;;0.40;0.40;;;8.00;99.90;;;;;;5054108;28;20196;-82
2022/01/05 05:30:51;;;;;;;0.50;0.50;;;7.80;99.90;;;;;;5054257;28;20220;-82
2022/01/05 05:33:17;;;;;;;0.87;0.60;;;7.30;99.90;;;;;;5054342;28;20204;-82
2022/01/05 05:35:43;;;;;;;0.93;0.60;;;7.10;99.90;;;;;;5070717;28;20218;-76
2022/01/05 05:38:10;;;;;;;1.20;0.40;;;6.50;99.90;;;;;;5058089;28;20185;-82
2022/01/05 05:40:36;;;;;;;0.50;0.50;;;6.40;99.90;;;;;;5054311;28;20214;-83
2022/01/05 05:43:02;;;;;;;0.40;0.40;;;6.20;99.90;;;;;;5037208;28;20215;-76
2022/01/05 05:45:30;;;;;;;0.67;0.60;;;6.10;99.90;;;;;;5036459;28;20273;-82
2022/01/05 05:47:56;;;;;;;0.60;0.50;;;6.20;99.90;;;;;;5069727;28;20203;-75
2022/01/05 05:50:22;;;;;;;0.77;0.63;;;6.20;99.90;;;;;;5036734;28;20229;-76
2022/01/05 05:52:48;;;;;;;0.67;0.60;;;6.20;99.90;;;;;;5053040;28;20543;-76
2022/01/05 05:55:14;;;;;;;0.47;0.37;;;6.20;99.90;;;;;;5069982;28;20212;-81
2022/01/05 05:57:39;;;;;;;0.47;0.47;;;6.40;99.90;;;;;;5071600;28;20539;-75
2022/01/05 06:00:07;;;;;;;0.40;0.40;;;6.50;99.90;;;;;;5053405;28;20285;-74
2022/01/05 06:02:33;;;;;;;0.50;0.50;;;6.50;99.90;;;;;;5036788;28;20196;-82
2022/01/05 06:04:59;;;;;;;1.57;0.50;;;6.40;99.90;;;;;;5069905;28;20638;-83
2022/01/05 06:07:25;;;;;;;0.40;0.40;;;6.40;99.90;;;;;;5070567;28;20260;-76
2022/01/05 06:09:51;;;;;;;0.30;0.30;;;6.10;99.90;;;;;;5071612;28;20623;-82
2022/01/05 06:12:16;;;;;;;0.73;0.50;;;6.60;99.90;;;;;;5072978;28;20243;-82
2022/01/05 06:14:42;;;;;;;0.50;0.50;;;6.60;99.90;;;;;;5069780;28;20207;-81
2022/01/05 06:17:08;;;;;;;1.20;0.60;;;6.40;99.90;;;;;;5053068;28;20193;-75
2022/01/05 06:19:34;;;;;;;0.80;0.50;;;6.40;99.90;;;;;;5069747;28;20212;-76
2022/01/05 06:21:59;;;;;;;0.50;0.47;;;6.40;99.90;;;;;;5069979;28;20192;-76
2022/01/05 06:24:26;;;;;;;1.17;0.67;;;6.50;99.90;;;;;;5069147;28;20222;-77
2022/01/05 06:26:52;;;;;;;1.63;0.70;;;6.50;99.90;;;;;;5069804;28;20196;-83
2022/01/05 06:29:19;;;;;;;0.70;0.50;;;6.50;99.90;;;;;;5069970;28;20547;-78
2022/01/05 06:31:45;;;;;;;0.90;0.50;;;6.50;99.90;;;;;;5069871;28;20278;-80
2022/01/05 06:34:10;;;;;;;1.00;0.60;;;6.40;99.90;;;;;;5069680;28;20208;-81
2022/01/05 06:36:36;;;;;;;1.00;0.60;;;6.40;99.90;;;;;;5073292;28;20184;-75
2022/01/05 06:39:03;;;;;;;0.40;0.40;;;6.70;99.90;;;;;;5073531;28;20200;-77
2022/01/05 06:41:28;;;;;;;0.87;0.63;;;6.70;99.90;;;;;;5056462;28;20196;-81
2022/01/05 06:43:54;;;;;;;1.63;0.60;;;6.70;99.90;;;;;;5075030;28;20643;-76
2022/01/05 06:46:20;;;;;;;0.73;0.73;;;6.60;99.90;;;;;;5074138;28;20279;-75
2022/01/05 06:48:46;;;;;;;0.93;0.60;;;6.60;99.90;;;;;;5042906;28;20212;-76
2022/01/05 06:51:11;;;;;;;0.60;0.57;;;6.80;99.90;;;;;;5073115;28;20212;-81
2022/01/05 06:53:37;;;;;;;0.50;0.50;;;6.80;99.90;;;;;;5056511;28;20212;-82
2022/01/05 06:56:04;;;;;;;1.00;0.63;;;6.70;99.90;;;;;;5073054;28;20275;-75
2022/01/05 06:58:31;;;;;;;1.53;0.70;;;6.50;99.90;;;;;;5040297;28;20291;-83
2022/01/05 07:00:56;;;;;;;1.53;0.60;;;6.40;99.90;;;;;;5073195;28;20192;-74
2022/01/05 07:03:22;;;;;;;1.40;0.77;;;6.50;99.90;;;;;;5036146;28;20684;-76
2022/01/05 07:05:48;;;;;;;1.57;0.90;;;6.50;99.90;;;;;;5055239;28;20233;-81
2022/01/05 07:08:14;;;;;;;0.97;0.60;;;6.50;99.90;;;;;;5071860;28;20192;-76
2022/01/05 07:10:40;;;;;;;1.10;0.70;;;6.50;99.90;;;;;;5063607;28;20184;-75
2022/01/05 07:13:07;;;;;;;0.63;0.60;;;6.40;99.90;;;;;;5062799;28;20196;-81
2022/01/05 07:15:33;;;;;;;0.87;0.60;;;6.40;99.90;;;;;;5070773;28;20205;-80
2022/01/05 07:17:59;;;;;;;1.57;0.60;;;6.40;99.90;;;;;;5070395;28;20208;-77
2022/01/05 07:20:25;;;;;;;1.20;0.60;;;6.40;99.90;;;;;;5071266;28;20565;-84
2022/01/05 07:22:51;;;;;;;1.23;0.60;;;6.50;99.90;;;;;;5071327;28;20279;-83
2022/01/05 07:25:16;;;;;;;3.30;1.80;;;6.60;99.90;;;;;;5070163;28;20211;-76
2022/01/05 07:27:43;;;;;;;0.60;0.60;;;6.50;99.90;;;;;;5072338;28;20203;-82
2022/01/05 07:30:09;;;;;;;1.60;0.80;;;6.30;99.90;;;;;;5072412;28;20200;-77
2022/01/05 07:32:36;;;;;;;0.63;0.63;;;6.50;99.90;;;;;;5054968;28;20286;-82
2022/01/05 07:35:03;;;;;;;2.13;0.80;;;6.40;99.90;;;;;;5054920;28;20271;-81
2022/01/05 07:37:28;;;;;;;0.60;0.60;;;6.10;99.90;;;;;;5053836;28;20212;-82
2022/01/05 07:39:54;;;;;;;0.93;0.60;;;6.30;99.90;;;;;;5038055;28;20235;-77
2022/01/05 07:42:20;;;;;;;1.20;0.70;;;6.20;99.90;;;;;;5070651;28;20290;-77
2022/01/05 07:44:46;;;;;;;0.70;0.60;;;6.30;99.90;;;;;;5060879;28;20204;-82
2022/01/05 07:47:12;;;;;;;1.27;1.00;;;6.40;99.90;;;;;;5052603;28;20219;-82
2022/01/05 07:49:39;;;;;;;1.07;0.53;;;6.40;99.90;;;;;;5070709;28;20196;-83
2022/01/05 07:52:06;;;;;;;0.70;0.60;;;6.40;99.90;;;;;;5065564;28;20233;-83
2022/01/05 07:54:32;;;;;;;1.47;0.70;;;6.40;99.90;;;;;;5074136;28;20209;-76
2022/01/05 07:57:00;;;;;;;2.17;0.90;;;6.30;99.90;;;;;;5072696;28;20194;-77
2022/01/05 07:59:26;;;;;;;2.03;0.80;;;6.30;99.90;;;;;;5071560;28;20226;-76
2022/01/05 08:01:51;;;;;;;1.40;0.60;;;6.50;99.90;;;;;;5047613;28;20349;-83
2022/01/05 08:04:19;;;;;;;1.10;1.00;;;6.40;99.90;;;;;;5054694;28;20204;-78
2022/01/05 08:06:44;;;;;;;1.47;0.70;;;6.40;99.90;;;;;;5070297;28;20670;-77
2022/01/05 08:09:10;;;;;;;1.80;0.80;;;6.40;99.90;;;;;;5051258;28;20201;-80
2022/01/05 08:11:36;;;;;;;1.77;0.90;;;6.30;99.90;;;;;;5069774;28;20772;-74
2022/01/05 08:14:02;;;;;;;1.70;0.90;;;6.30;99.90;;;;;;5034666;28;20283;-79
2022/01/05 08:16:29;;;;;;;2.53;1.00;;;6.20;99.90;;;;;;5069252;28;20303;-75
2022/01/05 08:18:57;;;;;;;1.50;0.80;;;6.20;99.90;;;;;;5070249;28;20235;-83
2022/01/05 08:21:23;;;;;;;2.07;1.17;;;6.20;99.90;;;;;;5069335;28;20211;-75
2022/01/05 08:23:50;;;;;;;5.97;1.37;;;6.40;99.90;;;;;;5071378;28;20671;-81
2022/01/05 08:26:16;;;;;;;1.17;1.00;;;6.10;99.90;;;;;;5070937;28;20216;-82
2022/01/05 08:28:41;;;;;;;5.00;1.33;;;5.90;99.90;;;;;;5051696;28;20200;-74
2022/01/05 08:31:07;;;;;;;2.30;0.90;;;6.20;99.90;;;;;;5050986;28;20261;-75
2022/01/05 08:33:34;;;;;;;1.17;0.80;;;6.10;99.90;;;;;;5086283;28;20215;-81
2022/01/05 08:36:02;;;;;;;1.70;1.20;;;6.30;99.90;;;;;;5035900;28;20193;-81
2022/01/05 08:38:29;;;;;;;4.17;1.53;;;6.40;99.90;;;;;;5086337;28;20192;-75
2022/01/05 08:40:55;;;;;;;4.77;1.00;;;6.50;99.90;;;;;;5052717;28;20262;-75
2022/01/05 08:43:21;;;;;;;3.50;0.90;;;6.60;99.90;;;;;;5069293;28;20207;-74
2022/01/05 08:45:47;;;;;;;8.20;2.83;;;6.40;99.90;;;;;;5068168;28;20680;-81
2022/01/05 08:48:14;;;;;;;5.10;2.80;;;6.40;99.90;;;;;;5069377;28;20731;-81
2022/01/05 08:50:40;;;;;;;3.13;1.43;;;6.50;99.90;;;;;;5069776;28;20223;-80
2022/01/05 08:53:06;;;;;;;3.73;1.83;;;6.30;99.90;;;;;;5069123;28;20208;-81
2022/01/05 08:55:36;;;;;;;9.60;4.57;;;6.10;99.90;;;;;;5065970;28;20211;-82
2022/01/05 08:58:03;;;;;;;2.30;1.27;;;6.30;99.90;;;;;;5052705;28;20235;-81
2022/01/05 09:00:30;;;;;;;6.27;2.23;;;6.20;99.90;;;;;;5056299;28;20234;-81
2022/01/05 09:02:57;;;;;;;7.90;2.00;;;6.20;99.90;;;;;;5068743;28;20313;-79
2022/01/05 09:05:23;;;;;;;3.53;1.30;;;6.20;99.90;;;;;;5070199;28;20239;-82
2022/01/05 09:07:49;;;;;;;2.83;1.17;;;6.00;99.90;;;;;;5063776;28;20240;-80
2022/01/05 09:10:14;;;;;;;4.03;1.00;;;6.10;99.90;;;;;;5049018;28;20235;-75
2022/01/05 09:12:41;;;;;;;3.23;1.00;;;5.90;99.90;;;;;;5052408;28;20567;-83
2022/01/05 09:15:07;;;;;;;4.20;1.13;;;6.00;99.90;;;;;;5051135;28;20227;-76
2022/01/05 09:17:33;;;;;;;3.33;1.10;;;5.90;99.90;;;;;;5069959;28;20290;-76
2022/01/05 09:19:59;;;;;;;1.80;1.00;;;5.70;99.90;;;;;;5052372;28;20291;-76
2022/01/05 09:22:25;;;;;;;2.37;1.10;;;5.80;99.90;;;;;;5052165;28;20249;-76
2022/01/05 09:24:51;;;;;;;3.47;1.20;;;6.00;99.90;;;;;;5035921;28;20200;-76
2022/01/05 09:27:17;;;;;;;2.17;1.17;;;6.10;99.90;;;;;;5069168;28;20254;-81
2022/01/05 09:29:43;;;;;;;1.87;1.20;;;6.00;99.90;;;;;;5068749;28;20720;-81
2022/01/05 09:32:11;;;;;;;2.73;1.40;;;5.80;99.90;;;;;;5070338;28;20452;-82
2022/01/05 09:34:42;;;;;;;3.80;1.20;;;6.20;99.90;;;;;;5070465;28;20227;-76
2022/01/05 09:37:16;;;;;;;2.10;1.10;;;6.40;99.90;;;;;;5051288;28;20239;-80
2022/01/05 09:42:26;;;;;;;2.40;1.37;;;6.50;99.90;;;;;;5068706;28;20256;-76
2022/01/05 09:44:53;;;;;;;3.63;1.00;;;6.60;99.90;;;;;;5035160;28;20204;-74
2022/01/05 09:47:37;;;;;;;3.90;1.10;;;6.60;99.90;;;;;;5084270;28;20558;-80
2022/01/05 09:50:07;;;;;;;3.87;1.23;;;6.60;99.90;;;;;;5068784;28;20196;-75
2022/01/05 09:52:40;;;;;;;3.13;1.30;;;6.70;99.90;;;;;;5068720;28;20204;-76
2022/01/05 09:55:08;;;;;;;2.80;1.20;;;6.40;99.90;;;;;;5061941;28;20348;-74
2022/01/05 09:57:35;;;;;;;1.60;1.27;;;6.40;99.90;;;;;;5067877;28;20651;-80
2022/01/05 10:00:02;;;;;;;4.17;1.00;;;6.50;99.90;;;;;;5050883;28;20681;-75
2022/01/05 10:02:30;;;;;;;3.30;1.30;;;6.30;99.90;;;;;;5067827;28;20570;-80
2022/01/05 10:04:57;;;;;;;2.83;1.10;;;6.30;99.90;;;;;;5084415;28;20330;-77
2022/01/05 10:07:23;;;;;;;2.90;1.30;;;6.50;99.90;;;;;;5052441;28;20215;-75
2022/01/05 10:09:49;;;;;;;3.87;1.20;;;6.00;99.90;;;;;;5068325;28;20576;-75
2022/01/05 10:12:16;;;;;;;2.70;1.00;;;6.10;99.90;;;;;;5078157;28;20216;-76
2022/01/05 10:14:47;;;;;;;4.57;1.40;;;6.60;99.90;;;;;;5072953;28;20687;-75
2022/01/05 10:17:15;;;;;;;4.77;1.43;;;6.30;99.90;;;;;;5093441;28;20177;-82
2022/01/05 10:19:42;;;;;;;3.07;1.00;;;6.30;99.90;;;;;;5073864;28;20200;-81
2022/01/05 10:22:26;;;;;;;3.57;1.00;;;6.30;99.90;;;;;;5073586;28;20208;-77
2022/01/05 10:24:54;;;;;;;3.37;1.50;;;6.10;99.90;;;;;;5071793;28;20204;-77
2022/01/05 10:27:22;;;;;;;3.77;1.20;;;5.90;99.90;;;;;;5063353;28;20207;-81
2022/01/05 10:29:58;;;;;;;2.43;1.20;;;6.20;99.90;;;;;;5072437;28;20204;-77
2022/01/05 10:32:26;;;;;;;3.50;1.00;;;6.00;99.90;;;;;;5067393;28;20229;-79
2022/01/05 10:35:12;;;;;;;4.70;1.27;;;5.80;99.90;;;;;;5073039;28;20200;-81
2022/01/05 10:37:42;;;;;;;4.63;1.20;;;5.90;99.90;;;;;;5071703;28;20275;-74
2022/01/05 10:40:11;;;;;;;2.67;1.17;;;6.20;99.90;;;;;;5054575;28;20547;-83
2022/01/05 10:42:38;;;;;;;2.80;1.10;;;6.30;99.90;;;;;;5076292;28;20275;-76
2022/01/05 10:45:06;;;;;;;3.80;1.40;;;6.20;99.90;;;;;;5071755;28;20231;-82
2022/01/05 10:47:33;;;;;;;3.80;1.00;;;6.40;99.90;;;;;;5062545;28;20284;-77
2022/01/05 10:50:00;;;;;;;1.87;1.00;;;6.50;99.90;;;;;;5073715;28;20200;-76
2022/01/05 10:52:34;;;;;;;2.73;1.27;;;6.10;99.90;;;;;;5055137;28;20341;-81
2022/01/05 10:55:18;;;;;;;7.97;1.53;;;6.00;99.90;;;;;;5055477;28;20203;-83
2022/01/05 10:58:05;;;;;;;5.60;2.30;;;6.30;99.90;;;;;;5070711;28;20199;-80
2022/01/05 11:00:41;;;;;;;2.50;1.00;;;6.10;99.90;;;;;;5085369;28;20628;-75
2022/01/05 11:03:37;;;;;;;4.07;1.00;;;6.00;99.90;;;;;;5088066;28;20192;-74
2022/01/05 11:06:07;;;;;;;7.07;1.40;;;6.00;99.90;;;;;;5059668;28;20200;-75
2022/01/05 11:08:55;;;;;;;6.67;1.10;;;5.80;99.90;;;;;;5072085;28;20235;-81
2022/01/05 11:11:41;;;;;;;3.83;1.10;;;5.70;99.90;;;;;;5076847;28;20216;-80
2022/01/05 11:14:11;;;;;;;3.43;1.03;;;5.80;99.90;;;;;;5075367;28;20309;-81
2022/01/05 11:16:43;;;;;;;2.60;1.33;;;5.90;99.90;;;;;;5073966;28;20200;-75
2022/01/05 11:19:22;;;;;;;4.13;1.43;;;6.20;99.90;;;;;;5072094;28;20197;-77
2022/01/05 11:22:03;;;;;;;2.80;1.27;;;6.40;99.90;;;;;;5070532;28;20204;-81
2022/01/05 11:24:38;;;;;;;2.77;1.10;;;6.20;99.90;;;;;;5071431;28;20223;-80
2022/01/05 11:27:06;;;;;;;5.13;1.30;;;6.20;99.90;;;;;;5067230;28;20280;-79
2022/01/05 11:29:33;;;;;;;8.87;3.50;;;6.30;99.90;;;;;;5071738;28;20199;-75
2022/01/05 11:32:04;;;;;;;3.47;1.30;;;6.40;99.90;;;;;;5041184;28;20586;-74
2022/01/05 11:34:30;;;;;;;5.73;1.07;;;6.70;99.90;;;;;;5038204;28;20218;-79
2022/01/05 11:36:58;;;;;;;2.43;0.93;;;6.60;99.90;;;;;;5072261;28;20200;-75
2022/01/05 11:39:25;;;;;;;4.43;1.67;;;6.80;99.90;;;;;;5071393;28;20231;-79
2022/01/05 11:41:55;;;;;;;4.13;1.53;;;6.90;99.90;;;;;;5055154;28;20197;-75
2022/01/05 11:44:21;;;;;;;3.57;1.10;;;6.90;99.90;;;;;;5088695;28;20207;-80
2022/01/05 11:46:47;;;;;;;3.57;1.00;;;7.10;99.90;;;;;;5073199;28;20208;-81
2022/01/05 11:49:16;;;;;;;5.23;1.40;;;7.10;99.90;;;;;;5053967;28;20265;-81
2022/01/05 11:51:42;;;;;;;7.93;1.70;;;7.00;99.90;;;;;;5086819;28;20257;-74
2022/01/05 11:54:32;;;;;;;3.43;1.13;;;6.80;99.90;;;;;;5070767;28;20203;-81
2022/01/05 11:57:08;;;;;;;7.13;2.50;;;6.80;99.90;;;;;;5061619;28;20204;-75
2022/01/05 11:59:42;;;;;;;3.90;1.50;;;6.60;99.90;;;;;;5070785;28;20284;-81
2022/01/05 12:02:12;;;;;;;4.23;1.80;;;7.00;99.90;;;;;;5058622;28;20231;-75
2022/01/05 12:04:57;;;;;;;4.13;1.20;;;7.20;99.90;;;;;;5054859;28;20204;-80
2022/01/05 12:07:43;;;;;;;2.50;1.40;;;7.10;99.90;;;;;;5052699;28;20215;-80
2022/01/05 12:10:22;;;;;;;5.97;1.30;;;7.10;99.90;;;;;;5085726;28;20207;-80
2022/01/05 12:13:05;;;;;;;1.83;0.93;;;6.90;99.90;;;;;;5069711;28;20686;-80
2022/01/05 12:15:56;;;;;;;5.10;1.50;;;6.80;99.90;;;;;;5069438;28;20324;-81
2022/01/05 12:18:30;;;;;;;5.93;1.43;;;6.50;99.90;;;;;;5069982;28;20200;-75
2022/01/05 12:20:58;;;;;;;4.43;1.30;;;6.60;99.90;;;;;;5068210;28;20262;-75
2022/01/05 12:23:25;;;;;;;2.77;1.10;;;7.00;99.90;;;;;;5069965;28;20232;-81
2022/01/05 12:26:07;;;;;;;2.97;1.60;;;6.70;99.90;;;;;;5069442;28;20262;-75
2022/01/05 12:28:36;;;;;;;3.90;1.30;;;6.50;99.90;;;;;;5068897;28;20259;-80
2022/01/05 12:31:07;;;;;;;7.50;1.60;;;6.60;99.90;;;;;;5086573;28;20349;-75
2022/01/05 12:33:48;;;;;;;3.00;1.37;;;6.70;99.90;;;;;;5068954;28;20308;-76
2022/01/05 12:36:34;;;;;;;1.27;0.73;;;6.90;99.90;;;;;;5069643;28;20200;-76
2022/01/05 12:39:02;;;;;;;3.07;1.03;;;7.10;99.90;;;;;;5069584;28;20267;-75
2022/01/05 12:41:30;;;;;;;4.63;1.37;;;7.10;99.90;;;;;;5052596;28;20203;-74
2022/01/05 12:44:03;;;;;;;4.67;1.23;;;6.80;99.90;;;;;;5058995;28;20200;-77
2022/01/05 12:46:35;;;;;;;4.10;1.30;;;6.70;99.90;;;;;;5051320;28;20211;-80
2022/01/05 12:49:04;;;;;;;3.83;0.93;;;6.20;99.90;;;;;;5069959;28;20288;-77
2022/01/05 12:51:49;;;;;;;2.00;1.00;;;6.10;99.90;;;;;;5071734;28;20236;-76
2022/01/05 12:54:23;;;;;;;1.20;0.80;;;5.70;99.90;;;;;;5069481;28;20204;-80
2022/01/05 12:57:02;;;;;;;3.10;0.87;;;5.50;99.90;;;;;;5085245;28;20200;-80
2022/01/05 12:59:29;;;;;;;5.13;1.27;;;5.70;99.90;;;;;;5036500;28;20295;-76
2022/01/05 13:02:03;;;;;;;4.67;1.00;;;6.30;99.90;;;;;;5069799;28;20237;-75
2022/01/05 13:04:29;;;;;;;3.60;0.93;;;6.30;99.90;;;;;;5085820;28;20216;-78
2022/01/05 13:06:58;;;;;;;9.70;1.43;;;6.40;99.90;;;;;;5073194;28;20192;-75